sensor_id;sensor_type;location;lat;lon;timestamp;temperature;humidity
5384;DHT22;2715;53.448;10.078;2022-11-20T00:02:09;19.70;49.40
5384;DHT22;2715;53.448;10.078;2022-11-20T00:04:36;19.70;49.40
5384;DHT22;2715;53.448;10.078;2022-11-20T00:07:04;19.70;49.40
5384;DHT22;2715;53.448;10.078;2022-11-20T00:09:30;19.70;49.40
5384;DHT22;2715;53.448;10.078;2022-11-20T00:11:57;19.70;49.40
5384;DHT22;2715;53.448;10.078;2022-11-20T00:14:24;19.70;50.00
5384;DHT22;2715;53.448;10.078;2022-11-20T00:16:51;19.70;49.40
5384;DHT22;2715;53.448;10.078;2022-11-20T00:19:17;19.70;49.40
5384;DHT22;2715;53.448;10.078;2022-11-20T00:21:44;19.70;49.40
5384;DHT22;2715;53.448;10.078;2022-11-20T00:24:12;19.70;49.40
5384;DHT22;2715;53.448;10.078;2022-11-20T00:26:39;19.70;49.30
5384;DHT22;2715;53.448;10.078;2022-11-20T00:29:08;19.70;49.40
5384;DHT22;2715;53.448;10.078;2022-11-20T00:31:35;19.70;49.40
5384;DHT22;2715;53.448;10.078;2022-11-20T00:34:02;19.70;49.40
5384;DHT22;2715;53.448;10.078;2022-11-20T00:36:31;19.70;49.30
5384;DHT22;2715;53.448;10.078;2022-11-20T00:38:58;19.70;49.30
5384;DHT22;2715;53.448;10.078;2022-11-20T00:41:28;19.70;49.30
5384;DHT22;2715;53.448;10.078;2022-11-20T00:43:55;19.70;49.40
5384;DHT22;2715;53.448;10.078;2022-11-20T00:46:22;19.70;49.30
5384;DHT22;2715;53.448;10.078;2022-11-20T00:48:49;19.70;49.30
5384;DHT22;2715;53.448;10.078;2022-11-20T00:51:17;19.70;49.30
5384;DHT22;2715;53.448;10.078;2022-11-20T00:53:44;19.60;49.20
5384;DHT22;2715;53.448;10.078;2022-11-20T00:56:12;19.60;49.30
5384;DHT22;2715;53.448;10.078;2022-11-20T00:58:40;19.60;49.30
5384;DHT22;2715;53.448;10.078;2022-11-20T01:01:08;19.60;49.30
5384;DHT22;2715;53.448;10.078;2022-11-20T01:03:36;19.60;49.20
5384;DHT22;2715;53.448;10.078;2022-11-20T01:06:04;19.60;49.20
5384;DHT22;2715;53.448;10.078;2022-11-20T01:08:32;19.60;49.30
5384;DHT22;2715;53.448;10.078;2022-11-20T01:10:59;19.60;49.20
5384;DHT22;2715;53.448;10.078;2022-11-20T01:13:28;19.60;49.20
5384;DHT22;2715;53.448;10.078;2022-11-20T01:16:06;19.60;49.20
5384;DHT22;2715;53.448;10.078;2022-11-20T01:18:33;19.60;49.20
5384;DHT22;2715;53.448;10.078;2022-11-20T01:21:01;19.60;49.20
5384;DHT22;2715;53.448;10.078;2022-11-20T01:23:30;19.60;49.20
5384;DHT22;2715;53.448;10.078;2022-11-20T01:25:56;19.60;49.20
5384;DHT22;2715;53.448;10.078;2022-11-20T01:28:23;19.60;49.20
5384;DHT22;2715;53.448;10.078;2022-11-20T01:30:50;19.60;49.20
5384;DHT22;2715;53.448;10.078;2022-11-20T01:33:18;19.60;49.10
5384;DHT22;2715;53.448;10.078;2022-11-20T01:35:44;19.50;49.10
5384;DHT22;2715;53.448;10.078;2022-11-20T01:38:11;19.60;49.10
5384;DHT22;2715;53.448;10.078;2022-11-20T01:40:38;19.50;49.10
5384;DHT22;2715;53.448;10.078;2022-11-20T01:43:09;19.50;49.10
5384;DHT22;2715;53.448;10.078;2022-11-20T01:45:51;19.50;49.00
5384;DHT22;2715;53.448;10.078;2022-11-20T01:48:23;19.50;49.00
5384;DHT22;2715;53.448;10.078;2022-11-20T01:50:52;19.50;49.00
5384;DHT22;2715;53.448;10.078;2022-11-20T01:53:20;19.50;48.90
5384;DHT22;2715;53.448;10.078;2022-11-20T01:55:48;19.50;49.00
5384;DHT22;2715;53.448;10.078;2022-11-20T01:58:15;19.50;48.90
5384;DHT22;2715;53.448;10.078;2022-11-20T02:00:43;19.50;48.90
5384;DHT22;2715;53.448;10.078;2022-11-20T02:03:10;19.50;48.90
5384;DHT22;2715;53.448;10.078;2022-11-20T02:05:41;19.50;48.90
5384;DHT22;2715;53.448;10.078;2022-11-20T02:08:10;19.50;48.90
5384;DHT22;2715;53.448;10.078;2022-11-20T02:10:37;19.50;48.80
5384;DHT22;2715;53.448;10.078;2022-11-20T02:13:04;19.50;48.70
5384;DHT22;2715;53.448;10.078;2022-11-20T02:15:48;19.50;48.80
5384;DHT22;2715;53.448;10.078;2022-11-20T02:18:16;19.50;48.80
5384;DHT22;2715;53.448;10.078;2022-11-20T02:20:45;19.50;48.80
5384;DHT22;2715;53.448;10.078;2022-11-20T02:23:14;19.40;48.70
5384;DHT22;2715;53.448;10.078;2022-11-20T02:25:44;19.40;48.70
5384;DHT22;2715;53.448;10.078;2022-11-20T02:28:12;19.40;48.70
5384;DHT22;2715;53.448;10.078;2022-11-20T02:30:39;19.40;48.70
5384;DHT22;2715;53.448;10.078;2022-11-20T02:33:06;19.50;48.90
5384;DHT22;2715;53.448;10.078;2022-11-20T02:35:38;19.40;48.80
5384;DHT22;2715;53.448;10.078;2022-11-20T02:38:06;19.40;48.70
5384;DHT22;2715;53.448;10.078;2022-11-20T02:40:32;19.40;48.70
5384;DHT22;2715;53.448;10.078;2022-11-20T02:43:01;19.40;48.70
5384;DHT22;2715;53.448;10.078;2022-11-20T02:45:27;19.40;48.70
5384;DHT22;2715;53.448;10.078;2022-11-20T02:47:54;19.40;48.70
5384;DHT22;2715;53.448;10.078;2022-11-20T02:50:21;19.40;48.70
5384;DHT22;2715;53.448;10.078;2022-11-20T02:52:47;19.40;48.70
5384;DHT22;2715;53.448;10.078;2022-11-20T02:55:14;19.40;48.70
5384;DHT22;2715;53.448;10.078;2022-11-20T02:57:41;19.40;48.70
5384;DHT22;2715;53.448;10.078;2022-11-20T03:00:10;19.40;48.70
5384;DHT22;2715;53.448;10.078;2022-11-20T03:02:37;19.40;48.70
5384;DHT22;2715;53.448;10.078;2022-11-20T03:05:04;19.40;48.70
5384;DHT22;2715;53.448;10.078;2022-11-20T03:07:30;19.40;48.70
5384;DHT22;2715;53.448;10.078;2022-11-20T03:09:57;19.40;48.70
5384;DHT22;2715;53.448;10.078;2022-11-20T03:12:24;19.40;48.70
5384;DHT22;2715;53.448;10.078;2022-11-20T03:14:50;19.40;48.70
5384;DHT22;2715;53.448;10.078;2022-11-20T03:17:18;19.40;48.70
5384;DHT22;2715;53.448;10.078;2022-11-20T03:19:45;19.30;48.60
5384;DHT22;2715;53.448;10.078;2022-11-20T03:22:12;19.30;48.60
5384;DHT22;2715;53.448;10.078;2022-11-20T03:24:39;19.40;48.70
5384;DHT22;2715;53.448;10.078;2022-11-20T03:27:05;19.30;48.60
5384;DHT22;2715;53.448;10.078;2022-11-20T03:29:32;19.30;48.60
5384;DHT22;2715;53.448;10.078;2022-11-20T03:31:59;19.30;48.60
5384;DHT22;2715;53.448;10.078;2022-11-20T03:34:27;19.30;48.60
5384;DHT22;2715;53.448;10.078;2022-11-20T03:36:53;19.30;48.60
5384;DHT22;2715;53.448;10.078;2022-11-20T03:39:20;19.40;48.70
5384;DHT22;2715;53.448;10.078;2022-11-20T03:41:47;19.30;48.50
5384;DHT22;2715;53.448;10.078;2022-11-20T03:44:14;19.30;48.50
5384;DHT22;2715;53.448;10.078;2022-11-20T03:46:40;19.30;48.50
5384;DHT22;2715;53.448;10.078;2022-11-20T03:49:07;19.30;48.50
5384;DHT22;2715;53.448;10.078;2022-11-20T03:51:39;19.30;48.50
5384;DHT22;2715;53.448;10.078;2022-11-20T03:54:06;19.30;48.40
5384;DHT22;2715;53.448;10.078;2022-11-20T03:56:34;19.30;48.40
5384;DHT22;2715;53.448;10.078;2022-11-20T03:59:01;19.30;48.40
5384;DHT22;2715;53.448;10.078;2022-11-20T04:01:29;19.30;48.40
5384;DHT22;2715;53.448;10.078;2022-11-20T04:03:56;19.30;48.40
5384;DHT22;2715;53.448;10.078;2022-11-20T04:06:24;19.30;48.40
5384;DHT22;2715;53.448;10.078;2022-11-20T04:08:53;19.30;48.40
5384;DHT22;2715;53.448;10.078;2022-11-20T04:11:21;19.30;48.40
5384;DHT22;2715;53.448;10.078;2022-11-20T04:13:48;19.30;48.40
5384;DHT22;2715;53.448;10.078;2022-11-20T04:16:15;19.30;48.40
5384;DHT22;2715;53.448;10.078;2022-11-20T04:18:42;19.30;48.40
5384;DHT22;2715;53.448;10.078;2022-11-20T04:21:10;19.30;48.30
5384;DHT22;2715;53.448;10.078;2022-11-20T04:23:37;19.30;48.40
5384;DHT22;2715;53.448;10.078;2022-11-20T04:26:06;19.30;48.30
5384;DHT22;2715;53.448;10.078;2022-11-20T04:28:33;19.30;48.30
5384;DHT22;2715;53.448;10.078;2022-11-20T04:31:04;19.30;48.30
5384;DHT22;2715;53.448;10.078;2022-11-20T04:33:31;19.30;48.30
5384;DHT22;2715;53.448;10.078;2022-11-20T04:36:00;19.30;48.30
5384;DHT22;2715;53.448;10.078;2022-11-20T04:38:27;19.30;48.30
5384;DHT22;2715;53.448;10.078;2022-11-20T04:40:55;19.30;48.30
5384;DHT22;2715;53.448;10.078;2022-11-20T04:43:23;19.30;48.30
5384;DHT22;2715;53.448;10.078;2022-11-20T04:45:50;19.30;48.30
5384;DHT22;2715;53.448;10.078;2022-11-20T04:48:17;19.30;48.30
5384;DHT22;2715;53.448;10.078;2022-11-20T04:50:44;19.30;48.30
5384;DHT22;2715;53.448;10.078;2022-11-20T04:53:10;19.30;48.30
5384;DHT22;2715;53.448;10.078;2022-11-20T04:55:37;19.30;48.30
5384;DHT22;2715;53.448;10.078;2022-11-20T04:58:04;19.30;48.30
5384;DHT22;2715;53.448;10.078;2022-11-20T05:00:32;19.30;48.30
5384;DHT22;2715;53.448;10.078;2022-11-20T05:02:59;19.30;48.30
5384;DHT22;2715;53.448;10.078;2022-11-20T05:05:25;19.30;48.30
5384;DHT22;2715;53.448;10.078;2022-11-20T05:07:52;19.30;48.30
5384;DHT22;2715;53.448;10.078;2022-11-20T05:10:19;19.30;48.30
5384;DHT22;2715;53.448;10.078;2022-11-20T05:12:46;19.30;48.30
5384;DHT22;2715;53.448;10.078;2022-11-20T05:15:12;19.30;48.30
5384;DHT22;2715;53.448;10.078;2022-11-20T05:17:41;19.30;48.30
5384;DHT22;2715;53.448;10.078;2022-11-20T05:20:08;19.30;48.30
5384;DHT22;2715;53.448;10.078;2022-11-20T05:22:34;19.30;48.30
5384;DHT22;2715;53.448;10.078;2022-11-20T05:25:01;19.30;48.30
5384;DHT22;2715;53.448;10.078;2022-11-20T05:27:28;19.30;48.30
5384;DHT22;2715;53.448;10.078;2022-11-20T05:29:55;19.30;48.30
5384;DHT22;2715;53.448;10.078;2022-11-20T05:32:21;19.30;48.30
5384;DHT22;2715;53.448;10.078;2022-11-20T05:34:52;19.30;48.30
5384;DHT22;2715;53.448;10.078;2022-11-20T05:37:18;19.30;48.30
5384;DHT22;2715;53.448;10.078;2022-11-20T05:39:45;19.30;48.30
5384;DHT22;2715;53.448;10.078;2022-11-20T05:42:12;19.30;48.30
5384;DHT22;2715;53.448;10.078;2022-11-20T05:44:57;19.30;48.30
5384;DHT22;2715;53.448;10.078;2022-11-20T05:47:24;19.30;48.30
5384;DHT22;2715;53.448;10.078;2022-11-20T05:49:52;19.30;48.30
5384;DHT22;2715;53.448;10.078;2022-11-20T05:52:19;19.30;48.30
5384;DHT22;2715;53.448;10.078;2022-11-20T05:54:46;19.20;48.30
5384;DHT22;2715;53.448;10.078;2022-11-20T05:57:12;19.30;48.30
5384;DHT22;2715;53.448;10.078;2022-11-20T05:59:39;19.20;48.30
5384;DHT22;2715;53.448;10.078;2022-11-20T06:02:06;19.20;48.30
5384;DHT22;2715;53.448;10.078;2022-11-20T06:04:32;19.20;48.30
5384;DHT22;2715;53.448;10.078;2022-11-20T06:07:00;19.30;48.30
5384;DHT22;2715;53.448;10.078;2022-11-20T06:09:27;19.20;48.20
5384;DHT22;2715;53.448;10.078;2022-11-20T06:11:54;19.20;48.30
5384;DHT22;2715;53.448;10.078;2022-11-20T06:14:21;19.20;48.20
5384;DHT22;2715;53.448;10.078;2022-11-20T06:16:48;19.20;48.20
5384;DHT22;2715;53.448;10.078;2022-11-20T06:19:14;19.20;48.20
5384;DHT22;2715;53.448;10.078;2022-11-20T06:21:41;19.20;48.20
5384;DHT22;2715;53.448;10.078;2022-11-20T06:24:10;19.20;48.20
5384;DHT22;2715;53.448;10.078;2022-11-20T06:26:36;19.20;48.20
5384;DHT22;2715;53.448;10.078;2022-11-20T06:29:03;19.20;48.20
5384;DHT22;2715;53.448;10.078;2022-11-20T06:31:30;19.20;48.20
5384;DHT22;2715;53.448;10.078;2022-11-20T06:33:58;19.20;48.20
5384;DHT22;2715;53.448;10.078;2022-11-20T06:36:24;19.20;48.20
5384;DHT22;2715;53.448;10.078;2022-11-20T06:38:51;19.20;48.20
5384;DHT22;2715;53.448;10.078;2022-11-20T06:41:20;19.20;48.20
5384;DHT22;2715;53.448;10.078;2022-11-20T06:43:47;19.20;48.10
5384;DHT22;2715;53.448;10.078;2022-11-20T06:46:14;19.20;48.10
5384;DHT22;2715;53.448;10.078;2022-11-20T06:48:43;19.20;48.10
5384;DHT22;2715;53.448;10.078;2022-11-20T06:51:09;19.20;48.10
5384;DHT22;2715;53.448;10.078;2022-11-20T06:53:36;19.20;48.00
5384;DHT22;2715;53.448;10.078;2022-11-20T06:56:03;19.20;48.00
5384;DHT22;2715;53.448;10.078;2022-11-20T06:58:32;19.20;48.00
5384;DHT22;2715;53.448;10.078;2022-11-20T07:00:59;19.20;48.00
5384;DHT22;2715;53.448;10.078;2022-11-20T07:03:26;19.20;48.00
5384;DHT22;2715;53.448;10.078;2022-11-20T07:05:54;19.20;48.00
5384;DHT22;2715;53.448;10.078;2022-11-20T07:08:20;19.20;48.00
5384;DHT22;2715;53.448;10.078;2022-11-20T07:10:47;19.20;48.00
5384;DHT22;2715;53.448;10.078;2022-11-20T07:13:16;19.20;48.00
5384;DHT22;2715;53.448;10.078;2022-11-20T07:15:45;19.20;48.00
5384;DHT22;2715;53.448;10.078;2022-11-20T07:18:11;19.20;48.00
5384;DHT22;2715;53.448;10.078;2022-11-20T07:20:38;19.30;48.10
5384;DHT22;2715;53.448;10.078;2022-11-20T07:23:05;19.20;48.00
5384;DHT22;2715;53.448;10.078;2022-11-20T07:25:32;19.20;48.00
5384;DHT22;2715;53.448;10.078;2022-11-20T07:28:00;19.30;48.10
5384;DHT22;2715;53.448;10.078;2022-11-20T07:30:27;19.20;48.00
5384;DHT22;2715;53.448;10.078;2022-11-20T07:32:55;19.30;48.10
5384;DHT22;2715;53.448;10.078;2022-11-20T07:35:23;19.30;48.10
5384;DHT22;2715;53.448;10.078;2022-11-20T07:37:49;19.20;48.10
5384;DHT22;2715;53.448;10.078;2022-11-20T07:40:16;19.30;48.10
5384;DHT22;2715;53.448;10.078;2022-11-20T07:42:47;19.20;48.10
5384;DHT22;2715;53.448;10.078;2022-11-20T07:45:14;19.30;48.20
5384;DHT22;2715;53.448;10.078;2022-11-20T07:47:41;19.30;48.20
5384;DHT22;2715;53.448;10.078;2022-11-20T07:50:09;19.30;48.30
5384;DHT22;2715;53.448;10.078;2022-11-20T07:52:36;19.30;48.30
5384;DHT22;2715;53.448;10.078;2022-11-20T07:55:03;19.30;48.30
5384;DHT22;2715;53.448;10.078;2022-11-20T07:57:30;19.30;48.30
5384;DHT22;2715;53.448;10.078;2022-11-20T07:59:57;19.30;48.30
5384;DHT22;2715;53.448;10.078;2022-11-20T08:02:24;19.30;48.30
5384;DHT22;2715;53.448;10.078;2022-11-20T08:04:51;19.30;48.40
5384;DHT22;2715;53.448;10.078;2022-11-20T08:07:19;19.30;48.40
5384;DHT22;2715;53.448;10.078;2022-11-20T08:09:45;19.30;48.40
5384;DHT22;2715;53.448;10.078;2022-11-20T08:12:16;19.30;48.40
5384;DHT22;2715;53.448;10.078;2022-11-20T08:15:01;19.30;48.40
5384;DHT22;2715;53.448;10.078;2022-11-20T08:17:28;19.30;48.50
5384;DHT22;2715;53.448;10.078;2022-11-20T08:19:54;19.30;48.50
5384;DHT22;2715;53.448;10.078;2022-11-20T08:22:22;19.30;48.50
5384;DHT22;2715;53.448;10.078;2022-11-20T08:24:50;19.30;48.50
5384;DHT22;2715;53.448;10.078;2022-11-20T08:27:16;19.30;48.50
5384;DHT22;2715;53.448;10.078;2022-11-20T08:29:43;19.30;48.50
5384;DHT22;2715;53.448;10.078;2022-11-20T08:32:10;19.30;48.60
5384;DHT22;2715;53.448;10.078;2022-11-20T08:34:36;19.30;48.50
5384;DHT22;2715;53.448;10.078;2022-11-20T08:37:03;19.30;48.80
5384;DHT22;2715;53.448;10.078;2022-11-20T08:39:31;19.30;48.80
5384;DHT22;2715;53.448;10.078;2022-11-20T08:41:58;19.30;48.80
5384;DHT22;2715;53.448;10.078;2022-11-20T08:44:25;19.30;48.80
5384;DHT22;2715;53.448;10.078;2022-11-20T08:46:51;19.30;48.90
5384;DHT22;2715;53.448;10.078;2022-11-20T08:49:18;19.30;48.90
5384;DHT22;2715;53.448;10.078;2022-11-20T08:51:45;19.30;48.90
5384;DHT22;2715;53.448;10.078;2022-11-20T08:54:13;19.30;49.00
5384;DHT22;2715;53.448;10.078;2022-11-20T08:56:41;19.30;49.00
5384;DHT22;2715;53.448;10.078;2022-11-20T08:59:08;19.30;49.10
5384;DHT22;2715;53.448;10.078;2022-11-20T09:01:35;19.30;49.10
5384;DHT22;2715;53.448;10.078;2022-11-20T09:04:02;19.30;49.10
5384;DHT22;2715;53.448;10.078;2022-11-20T09:06:30;19.30;49.10
5384;DHT22;2715;53.448;10.078;2022-11-20T09:08:56;19.30;49.10
5384;DHT22;2715;53.448;10.078;2022-11-20T09:11:23;19.30;49.10
5384;DHT22;2715;53.448;10.078;2022-11-20T09:13:51;19.30;49.20
5384;DHT22;2715;53.448;10.078;2022-11-20T09:16:18;19.30;49.70
5384;DHT22;2715;53.448;10.078;2022-11-20T09:18:45;19.30;49.20
5384;DHT22;2715;53.448;10.078;2022-11-20T09:21:12;19.30;49.20
5384;DHT22;2715;53.448;10.078;2022-11-20T09:23:40;19.30;49.20
5384;DHT22;2715;53.448;10.078;2022-11-20T09:26:08;19.30;49.20
5384;DHT22;2715;53.448;10.078;2022-11-20T09:28:35;19.30;49.20
5384;DHT22;2715;53.448;10.078;2022-11-20T09:31:05;19.30;49.20
5384;DHT22;2715;53.448;10.078;2022-11-20T09:33:32;19.30;49.20
5384;DHT22;2715;53.448;10.078;2022-11-20T09:35:59;19.30;49.20
5384;DHT22;2715;53.448;10.078;2022-11-20T09:38:26;19.40;49.30
5384;DHT22;2715;53.448;10.078;2022-11-20T09:40:55;19.40;49.30
5384;DHT22;2715;53.448;10.078;2022-11-20T09:43:24;19.40;49.30
5384;DHT22;2715;53.448;10.078;2022-11-20T09:45:58;19.40;49.30
5384;DHT22;2715;53.448;10.078;2022-11-20T09:48:51;19.40;49.30
5384;DHT22;2715;53.448;10.078;2022-11-20T09:51:25;19.40;49.30
5384;DHT22;2715;53.448;10.078;2022-11-20T09:53:59;19.40;49.90
5384;DHT22;2715;53.448;10.078;2022-11-20T09:56:33;19.40;49.30
5384;DHT22;2715;53.448;10.078;2022-11-20T09:59:02;19.40;49.30
5384;DHT22;2715;53.448;10.078;2022-11-20T10:01:31;19.40;49.30
5384;DHT22;2715;53.448;10.078;2022-11-20T10:04:01;19.40;49.30
5384;DHT22;2715;53.448;10.078;2022-11-20T10:06:29;19.40;49.30
5384;DHT22;2715;53.448;10.078;2022-11-20T10:08:59;19.40;49.30
5384;DHT22;2715;53.448;10.078;2022-11-20T10:11:30;19.40;49.30
5384;DHT22;2715;53.448;10.078;2022-11-20T10:14:00;19.40;49.30
5384;DHT22;2715;53.448;10.078;2022-11-20T10:16:33;19.40;49.30
5384;DHT22;2715;53.448;10.078;2022-11-20T10:19:07;19.40;49.30
5384;DHT22;2715;53.448;10.078;2022-11-20T10:21:39;19.40;49.30
5384;DHT22;2715;53.448;10.078;2022-11-20T10:24:19;19.40;49.30
5384;DHT22;2715;53.448;10.078;2022-11-20T10:26:51;19.40;49.30
5384;DHT22;2715;53.448;10.078;2022-11-20T10:29:22;19.40;49.30
5384;DHT22;2715;53.448;10.078;2022-11-20T10:31:51;19.40;49.30
5384;DHT22;2715;53.448;10.078;2022-11-20T10:34:22;19.40;49.20
5384;DHT22;2715;53.448;10.078;2022-11-20T10:36:52;19.60;51.30
5384;DHT22;2715;53.448;10.078;2022-11-20T10:54:44;19.80;49.90
5384;DHT22;2715;53.448;10.078;2022-11-20T10:57:17;25.50;43.00
5384;DHT22;2715;53.448;10.078;2022-11-20T10:59:55;23.50;45.80
5384;DHT22;2715;53.448;10.078;2022-11-20T11:02:31;23.10;46.40
5384;DHT22;2715;53.448;10.078;2022-11-20T11:04:58;22.30;46.50
5384;DHT22;2715;53.448;10.078;2022-11-20T11:07:33;22.30;47.30
5384;DHT22;2715;53.448;10.078;2022-11-20T11:10:05;21.80;47.50
5384;DHT22;2715;53.448;10.078;2022-11-20T11:12:42;22.70;48.40
5384;DHT22;2715;53.448;10.078;2022-11-20T11:15:11;23.00;47.70
5384;DHT22;2715;53.448;10.078;2022-11-20T11:17:45;23.90;45.30
5384;DHT22;2715;53.448;10.078;2022-11-20T11:20:14;23.40;48.20
5384;DHT22;2715;53.448;10.078;2022-11-20T11:22:46;23.70;47.60
5384;DHT22;2715;53.448;10.078;2022-11-20T11:25:21;23.70;46.60
5384;DHT22;2715;53.448;10.078;2022-11-20T11:46:38;24.50;49.60
5384;DHT22;2715;53.448;10.078;2022-11-20T11:51:23;25.80;45.70
5384;DHT22;2715;53.448;10.078;2022-11-20T11:54:00;23.30;45.30
5384;DHT22;2715;53.448;10.078;2022-11-20T11:56:30;22.20;47.20
5384;DHT22;2715;53.448;10.078;2022-11-20T11:59:00;21.70;48.30
5384;DHT22;2715;53.448;10.078;2022-11-20T12:01:33;21.60;48.80
5384;DHT22;2715;53.448;10.078;2022-11-20T12:04:04;22.10;49.80
5384;DHT22;2715;53.448;10.078;2022-11-20T12:06:34;22.80;52.80
5384;DHT22;2715;53.448;10.078;2022-11-20T12:09:04;23.10;49.90
5384;DHT22;2715;53.448;10.078;2022-11-20T12:11:32;23.10;48.70
5384;DHT22;2715;53.448;10.078;2022-11-20T12:14:00;23.10;48.40
5384;DHT22;2715;53.448;10.078;2022-11-20T12:16:30;23.20;48.50
5384;DHT22;2715;53.448;10.078;2022-11-20T12:18:58;23.00;47.70
5384;DHT22;2715;53.448;10.078;2022-11-20T12:21:28;22.70;47.90
